sensor_id;sensor_type;location;lat;lon;timestamp;pressure;altitude;pressure_sealevel;temperature;humidity
36630;BME280;36256;42.154;23.002;2023-02-08T00:00:40;98810.75;;;-2.64;64.61
36630;BME280;36256;42.154;23.002;2023-02-08T00:03:07;98805.25;;;-2.64;64.88
36630;BME280;36256;42.154;23.002;2023-02-08T00:05:34;98799.09;;;-2.61;64.57
36630;BME280;36256;42.154;23.002;2023-02-08T00:08:00;98794.25;;;-2.64;64.74
36630;BME280;36256;42.154;23.002;2023-02-08T00:10:27;98805.25;;;-2.64;64.97
36630;BME280;36256;42.154;23.002;2023-02-08T00:12:53;98804.97;;;-2.71;65.46
36630;BME280;36256;42.154;23.002;2023-02-08T00:15:20;98791.22;;;-2.71;65.58
36630;BME280;36256;42.154;23.002;2023-02-08T00:17:47;98786.75;;;-2.84;65.28
36630;BME280;36256;42.154;23.002;2023-02-08T00:20:14;98796.63;;;-2.83;65.66
36630;BME280;36256;42.154;23.002;2023-02-08T00:22:40;98796.31;;;-2.90;66.11
36630;BME280;36256;42.154;23.002;2023-02-08T00:25:07;98793.91;;;-2.92;66.11
36630;BME280;36256;42.154;23.002;2023-02-08T00:27:34;98808.25;;;-2.86;66.52
36630;BME280;36256;42.154;23.002;2023-02-08T00:30:01;98802.47;;;-2.93;65.87
36630;BME280;36256;42.154;23.002;2023-02-08T00:32:27;98806.88;;;-3.01;66.14
36630;BME280;36256;42.154;23.002;2023-02-08T00:34:54;98806.22;;;-2.98;66.75
36630;BME280;36256;42.154;23.002;2023-02-08T00:37:21;98816.88;;;-2.96;66.45
36630;BME280;36256;42.154;23.002;2023-02-08T00:39:47;98806.41;;;-3.11;66.95
36630;BME280;36256;42.154;23.002;2023-02-08T00:42:14;98814.34;;;-3.19;68.41
36630;BME280;36256;42.154;23.002;2023-02-08T00:44:40;98818.13;;;-3.32;68.00
36630;BME280;36256;42.154;23.002;2023-02-08T00:47:07;98824.09;;;-3.30;69.19
36630;BME280;36256;42.154;23.002;2023-02-08T00:49:33;98826.00;;;-3.22;68.42
36630;BME280;36256;42.154;23.002;2023-02-08T00:52:00;98825.03;;;-3.17;68.29
36630;BME280;36256;42.154;23.002;2023-02-08T00:54:27;98828.25;;;-3.15;68.28
36630;BME280;36256;42.154;23.002;2023-02-08T00:56:53;98835.19;;;-3.17;67.25
36630;BME280;36256;42.154;23.002;2023-02-08T00:59:20;98825.31;;;-3.19;69.01
36630;BME280;36256;42.154;23.002;2023-02-08T01:01:47;98820.81;;;-3.23;68.87
36630;BME280;36256;42.154;23.002;2023-02-08T01:04:14;98836.78;;;-3.17;67.64
36630;BME280;36256;42.154;23.002;2023-02-08T01:06:40;98838.09;;;-3.23;68.75
36630;BME280;36256;42.154;23.002;2023-02-08T01:09:07;98820.50;;;-3.22;68.49
36630;BME280;36256;42.154;23.002;2023-02-08T01:11:33;98841.66;;;-3.22;68.57
36630;BME280;36256;42.154;23.002;2023-02-08T01:14:00;98818.91;;;-3.31;68.37
36630;BME280;36256;42.154;23.002;2023-02-08T01:16:29;98833.09;;;-3.21;69.35
36630;BME280;36256;42.154;23.002;2023-02-08T01:18:57;98841.31;;;-3.21;68.42
36630;BME280;36256;42.154;23.002;2023-02-08T01:21:27;98837.28;;;-3.23;68.65
36630;BME280;36256;42.154;23.002;2023-02-08T01:23:54;98840.84;;;-3.31;69.25
36630;BME280;36256;42.154;23.002;2023-02-08T01:26:22;98834.06;;;-3.25;68.95
36630;BME280;36256;42.154;23.002;2023-02-08T01:28:50;98827.13;;;-3.31;68.79
36630;BME280;36256;42.154;23.002;2023-02-08T01:31:20;98831.50;;;-3.30;68.02
36630;BME280;36256;42.154;23.002;2023-02-08T01:33:47;98829.91;;;-3.40;68.14
36630;BME280;36256;42.154;23.002;2023-02-08T01:36:15;98823.78;;;-3.45;68.93
36630;BME280;36256;42.154;23.002;2023-02-08T01:38:43;98826.38;;;-3.49;68.88
36630;BME280;36256;42.154;23.002;2023-02-08T01:41:16;98832.00;;;-3.37;67.70
36630;BME280;36256;42.154;23.002;2023-02-08T01:46:25;98837.47;;;-3.28;66.73
36630;BME280;36256;42.154;23.002;2023-02-08T01:48:52;98835.69;;;-3.24;66.24
36630;BME280;36256;42.154;23.002;2023-02-08T01:51:24;98836.78;;;-3.17;66.30
36630;BME280;36256;42.154;23.002;2023-02-08T01:53:54;98836.47;;;-3.06;65.96
36630;BME280;36256;42.154;23.002;2023-02-08T01:56:29;98841.44;;;-3.00;65.54
36630;BME280;36256;42.154;23.002;2023-02-08T01:58:59;98846.97;;;-3.08;65.28
36630;BME280;36256;42.154;23.002;2023-02-08T02:01:28;98846.16;;;-3.17;65.38
36630;BME280;36256;42.154;23.002;2023-02-08T02:03:59;98846.34;;;-3.23;65.14
36630;BME280;36256;42.154;23.002;2023-02-08T02:06:31;98847.47;;;-3.24;65.15
36630;BME280;36256;42.154;23.002;2023-02-08T02:09:19;98862.53;;;-3.47;65.56
36630;BME280;36256;42.154;23.002;2023-02-08T02:11:50;98861.72;;;-3.56;65.62
36630;BME280;36256;42.154;23.002;2023-02-08T02:14:19;98855.91;;;-3.63;65.93
36630;BME280;36256;42.154;23.002;2023-02-08T02:16:47;98859.94;;;-3.52;65.88
36630;BME280;36256;42.154;23.002;2023-02-08T02:22:14;98861.03;;;-3.36;65.33
36630;BME280;36256;42.154;23.002;2023-02-08T02:25:41;98867.47;;;-3.23;64.85
36630;BME280;36256;42.154;23.002;2023-02-08T02:33:43;98880.25;;;-3.36;63.96
36630;BME280;36256;42.154;23.002;2023-02-08T02:39:04;98882.53;;;-3.46;64.21
36630;BME280;36256;42.154;23.002;2023-02-08T02:42:09;98889.97;;;-3.55;64.81
36630;BME280;36256;42.154;23.002;2023-02-08T02:44:53;98892.72;;;-3.64;65.11
36630;BME280;36256;42.154;23.002;2023-02-08T02:47:48;98891.91;;;-3.81;65.72
36630;BME280;36256;42.154;23.002;2023-02-08T02:50:27;98909.00;;;-3.67;66.01
36630;BME280;36256;42.154;23.002;2023-02-08T02:52:57;98906.59;;;-3.69;65.11
36630;BME280;36256;42.154;23.002;2023-02-08T02:55:27;98913.53;;;-3.71;65.48
36630;BME280;36256;42.154;23.002;2023-02-08T02:57:55;98913.72;;;-3.68;65.81
36630;BME280;36256;42.154;23.002;2023-02-08T03:00:26;98914.81;;;-3.69;65.82
36630;BME280;36256;42.154;23.002;2023-02-08T03:02:54;98916.09;;;-3.75;65.74
36630;BME280;36256;42.154;23.002;2023-02-08T03:05:21;98926.44;;;-3.80;65.73
36630;BME280;36256;42.154;23.002;2023-02-08T03:08:02;98930.75;;;-3.97;66.28
36630;BME280;36256;42.154;23.002;2023-02-08T03:16:18;98934.28;;;-4.05;66.66
36630;BME280;36256;42.154;23.002;2023-02-08T03:21:38;98940.09;;;-4.06;67.21
36630;BME280;36256;42.154;23.002;2023-02-08T03:24:23;98939.28;;;-4.07;67.86
36630;BME280;36256;42.154;23.002;2023-02-08T03:30:14;98940.56;;;-4.13;67.26
36630;BME280;36256;42.154;23.002;2023-02-08T03:32:49;98933.28;;;-4.17;67.82
36630;BME280;36256;42.154;23.002;2023-02-08T03:35:33;98938.41;;;-4.24;67.89
36630;BME280;36256;42.154;23.002;2023-02-08T03:38:10;98942.47;;;-4.22;68.08
36630;BME280;36256;42.154;23.002;2023-02-08T03:40:41;98934.09;;;-4.17;67.76
36630;BME280;36256;42.154;23.002;2023-02-08T03:43:15;98941.84;;;-4.19;67.96
36630;BME280;36256;42.154;23.002;2023-02-08T03:45:51;98941.16;;;-4.24;67.75
36630;BME280;36256;42.154;23.002;2023-02-08T03:48:20;98943.41;;;-4.26;68.46
36630;BME280;36256;42.154;23.002;2023-02-08T03:50:51;98934.09;;;-4.25;68.55
36630;BME280;36256;42.154;23.002;2023-02-08T03:53:21;98930.97;;;-4.32;67.89
36630;BME280;36256;42.154;23.002;2023-02-08T03:55:52;98941.59;;;-4.48;69.05
36630;BME280;36256;42.154;23.002;2023-02-08T03:58:24;98935.94;;;-4.43;68.72
36630;BME280;36256;42.154;23.002;2023-02-08T04:00:57;98943.38;;;-4.35;68.63
36630;BME280;36256;42.154;23.002;2023-02-08T04:03:27;98942.59;;;-4.35;68.60
36630;BME280;36256;42.154;23.002;2023-02-08T04:05:55;98945.34;;;-4.35;68.57
36630;BME280;36256;42.154;23.002;2023-02-08T04:08:23;98941.94;;;-4.32;68.91
36630;BME280;36256;42.154;23.002;2023-02-08T04:10:49;98931.78;;;-4.32;68.38
36630;BME280;36256;42.154;23.002;2023-02-08T04:13:16;98945.47;;;-4.40;68.53
36630;BME280;36256;42.154;23.002;2023-02-08T04:15:43;98934.63;;;-4.45;68.95
36630;BME280;36256;42.154;23.002;2023-02-08T04:18:10;98939.63;;;-4.47;69.21
36630;BME280;36256;42.154;23.002;2023-02-08T04:20:36;98928.06;;;-4.44;69.43
36630;BME280;36256;42.154;23.002;2023-02-08T04:23:03;98944.47;;;-4.44;69.18
36630;BME280;36256;42.154;23.002;2023-02-08T04:25:30;98936.41;;;-4.49;69.19
36630;BME280;36256;42.154;23.002;2023-02-08T04:27:56;98953.88;;;-4.67;70.25
36630;BME280;36256;42.154;23.002;2023-02-08T04:30:23;98939.22;;;-4.71;70.97
36630;BME280;36256;42.154;23.002;2023-02-08T04:32:49;98948.25;;;-4.62;70.89
36630;BME280;36256;42.154;23.002;2023-02-08T04:35:16;98944.28;;;-4.56;70.11
36630;BME280;36256;42.154;23.002;2023-02-08T04:37:42;98955.09;;;-4.51;70.12
36630;BME280;36256;42.154;23.002;2023-02-08T04:40:10;98933.72;;;-4.71;70.26
36630;BME280;36256;42.154;23.002;2023-02-08T04:42:37;98950.06;;;-4.58;69.96
36630;BME280;36256;42.154;23.002;2023-02-08T04:45:03;98948.25;;;-4.62;70.35
36630;BME280;36256;42.154;23.002;2023-02-08T04:47:30;98968.84;;;-4.73;70.74
36630;BME280;36256;42.154;23.002;2023-02-08T04:49:57;98970.81;;;-4.65;70.94
36630;BME280;36256;42.154;23.002;2023-02-08T04:52:23;98970.16;;;-4.62;71.01
36630;BME280;36256;42.154;23.002;2023-02-08T04:54:50;98975.97;;;-4.64;70.95
36630;BME280;36256;42.154;23.002;2023-02-08T04:57:16;98983.75;;;-4.57;70.98
36630;BME280;36256;42.154;23.002;2023-02-08T04:59:43;98989.09;;;-4.52;71.18
36630;BME280;36256;42.154;23.002;2023-02-08T05:02:10;98989.44;;;-4.45;70.90
36630;BME280;36256;42.154;23.002;2023-02-08T05:04:36;98992.44;;;-4.55;71.28
36630;BME280;36256;42.154;23.002;2023-02-08T05:07:03;98994.09;;;-4.54;71.78
36630;BME280;36256;42.154;23.002;2023-02-08T05:09:30;98995.69;;;-4.53;72.33
36630;BME280;36256;42.154;23.002;2023-02-08T05:11:56;99003.28;;;-4.50;71.50
36630;BME280;36256;42.154;23.002;2023-02-08T05:14:23;98999.72;;;-4.51;71.26
36630;BME280;36256;42.154;23.002;2023-02-08T05:16:49;98994.97;;;-4.67;71.80
36630;BME280;36256;42.154;23.002;2023-02-08T05:19:16;99001.59;;;-4.60;71.64
36630;BME280;36256;42.154;23.002;2023-02-08T05:21:43;99005.03;;;-4.54;71.68
36630;BME280;36256;42.154;23.002;2023-02-08T05:24:09;99007.91;;;-4.59;71.79
36630;BME280;36256;42.154;23.002;2023-02-08T05:26:39;99020.84;;;-4.51;71.49
36630;BME280;36256;42.154;23.002;2023-02-08T05:29:05;99018.75;;;-4.54;72.17
36630;BME280;36256;42.154;23.002;2023-02-08T05:31:32;99020.50;;;-4.58;72.22
36630;BME280;36256;42.154;23.002;2023-02-08T05:33:59;99022.91;;;-4.57;72.13
36630;BME280;36256;42.154;23.002;2023-02-08T05:36:26;99035.28;;;-4.59;72.22
36630;BME280;36256;42.154;23.002;2023-02-08T05:38:52;99029.00;;;-4.60;72.53
36630;BME280;36256;42.154;23.002;2023-02-08T05:41:19;99019.47;;;-4.62;72.61
36630;BME280;36256;42.154;23.002;2023-02-08T05:43:46;99003.69;;;-4.65;72.59
36630;BME280;36256;42.154;23.002;2023-02-08T05:46:12;99024.72;;;-4.52;72.02
36630;BME280;36256;42.154;23.002;2023-02-08T05:48:39;99022.25;;;-4.54;72.33
36630;BME280;36256;42.154;23.002;2023-02-08T05:51:06;99021.09;;;-4.61;73.74
36630;BME280;36256;42.154;23.002;2023-02-08T05:53:33;99017.59;;;-4.53;74.24
36630;BME280;36256;42.154;23.002;2023-02-08T05:55:59;99030.69;;;-4.50;74.20
36630;BME280;36256;42.154;23.002;2023-02-08T05:58:26;99032.59;;;-4.51;74.55
36630;BME280;36256;42.154;23.002;2023-02-08T06:00:53;99035.03;;;-4.49;74.23
36630;BME280;36256;42.154;23.002;2023-02-08T06:03:20;99037.63;;;-4.44;73.99
36630;BME280;36256;42.154;23.002;2023-02-08T06:05:47;99048.88;;;-4.77;75.39
36630;BME280;36256;42.154;23.002;2023-02-08T06:08:14;99052.25;;;-4.80;76.51
36630;BME280;36256;42.154;23.002;2023-02-08T06:10:40;99048.75;;;-4.71;76.48
36630;BME280;36256;42.154;23.002;2023-02-08T06:13:07;99063.84;;;-4.52;76.29
36630;BME280;36256;42.154;23.002;2023-02-08T06:15:34;99061.53;;;-4.36;75.40
36630;BME280;36256;42.154;23.002;2023-02-08T06:18:00;99065.69;;;-4.17;74.53
36630;BME280;36256;42.154;23.002;2023-02-08T06:20:27;99068.69;;;-4.27;74.52
36630;BME280;36256;42.154;23.002;2023-02-08T06:22:54;99071.97;;;-4.16;75.16
36630;BME280;36256;42.154;23.002;2023-02-08T06:25:21;99081.09;;;-3.90;73.70
36630;BME280;36256;42.154;23.002;2023-02-08T06:27:48;99085.69;;;-3.77;72.86
36630;BME280;36256;42.154;23.002;2023-02-08T06:30:14;99081.53;;;-3.66;72.37
36630;BME280;36256;42.154;23.002;2023-02-08T06:32:41;99085.47;;;-3.33;71.92
36630;BME280;36256;42.154;23.002;2023-02-08T06:35:08;99081.94;;;-3.25;70.10
36630;BME280;36256;42.154;23.002;2023-02-08T06:37:35;99074.88;;;-3.08;70.08
36630;BME280;36256;42.154;23.002;2023-02-08T06:40:02;99082.13;;;-2.87;69.34
36630;BME280;36256;42.154;23.002;2023-02-08T06:42:29;99084.88;;;-2.78;69.51
36630;BME280;36256;42.154;23.002;2023-02-08T06:44:56;99092.94;;;-3.07;70.27
36630;BME280;36256;42.154;23.002;2023-02-08T06:47:25;99090.38;;;-2.95;71.05
36630;BME280;36256;42.154;23.002;2023-02-08T06:49:52;99095.22;;;-2.58;70.11
36630;BME280;36256;42.154;23.002;2023-02-08T06:52:19;99098.41;;;-2.22;67.96
36630;BME280;36256;42.154;23.002;2023-02-08T06:54:46;99089.56;;;-1.90;66.71
36630;BME280;36256;42.154;23.002;2023-02-08T06:57:13;99090.97;;;-1.75;66.08
36630;BME280;36256;42.154;23.002;2023-02-08T06:59:40;99068.25;;;-1.64;65.09
36630;BME280;36256;42.154;23.002;2023-02-08T07:02:14;99097.25;;;-1.37;63.52
36630;BME280;36256;42.154;23.002;2023-02-08T07:04:42;99093.13;;;-1.22;62.91
36630;BME280;36256;42.154;23.002;2023-02-08T07:07:10;99091.81;;;-1.16;62.99
36630;BME280;36256;42.154;23.002;2023-02-08T07:09:37;99094.63;;;-1.04;62.03
36630;BME280;36256;42.154;23.002;2023-02-08T07:12:04;99093.53;;;-1.12;61.78
36630;BME280;36256;42.154;23.002;2023-02-08T07:14:32;99100.69;;;-0.90;61.24
36630;BME280;36256;42.154;23.002;2023-02-08T07:17:02;99094.34;;;-1.11;60.97
36630;BME280;36256;42.154;23.002;2023-02-08T07:19:29;99091.94;;;-0.92;61.07
36630;BME280;36256;42.154;23.002;2023-02-08T07:21:56;99093.16;;;-0.60;60.20
36630;BME280;36256;42.154;23.002;2023-02-08T07:24:24;99090.59;;;-0.45;59.46
36630;BME280;36256;42.154;23.002;2023-02-08T07:26:51;99090.91;;;-0.46;58.30
36630;BME280;36256;42.154;23.002;2023-02-08T07:29:17;99092.47;;;-0.37;58.37
36630;BME280;36256;42.154;23.002;2023-02-08T07:31:44;99087.75;;;-0.36;58.00
36630;BME280;36256;42.154;23.002;2023-02-08T07:34:10;99084.81;;;-0.52;58.34
36630;BME280;36256;42.154;23.002;2023-02-08T07:36:37;99094.09;;;-0.77;59.08
36630;BME280;36256;42.154;23.002;2023-02-08T07:39:04;99097.94;;;-0.49;58.48
36630;BME280;36256;42.154;23.002;2023-02-08T07:41:31;99092.97;;;-0.23;57.45
36630;BME280;36256;42.154;23.002;2023-02-08T07:43:58;99099.69;;;0.00;56.70
36630;BME280;36256;42.154;23.002;2023-02-08T07:46:25;99092.41;;;0.29;55.18
36630;BME280;36256;42.154;23.002;2023-02-08T07:48:52;99091.03;;;0.23;55.47
36630;BME280;36256;42.154;23.002;2023-02-08T07:51:18;99090.00;;;0.27;55.28
36630;BME280;36256;42.154;23.002;2023-02-08T07:53:45;99082.75;;;0.23;55.70
36630;BME280;36256;42.154;23.002;2023-02-08T07:56:12;99098.19;;;0.60;54.46
36630;BME280;36256;42.154;23.002;2023-02-08T07:58:38;99089.50;;;0.98;53.75
36630;BME280;36256;42.154;23.002;2023-02-08T08:01:05;99092.97;;;1.46;52.86
36630;BME280;36256;42.154;23.002;2023-02-08T08:03:48;99091.47;;;1.77;52.24
36630;BME280;36256;42.154;23.002;2023-02-08T08:06:15;99080.88;;;1.79;51.50
36630;BME280;36256;42.154;23.002;2023-02-08T08:08:42;99083.19;;;1.92;51.57
36630;BME280;36256;42.154;23.002;2023-02-08T08:11:16;99092.66;;;2.19;50.82
36630;BME280;36256;42.154;23.002;2023-02-08T08:13:43;99084.75;;;2.83;50.08
36630;BME280;36256;42.154;23.002;2023-02-08T08:16:11;99087.31;;;2.26;50.86
36630;BME280;36256;42.154;23.002;2023-02-08T08:18:37;99087.31;;;2.57;49.73
36630;BME280;36256;42.154;23.002;2023-02-08T08:21:04;99090.09;;;3.07;48.74
36630;BME280;36256;42.154;23.002;2023-02-08T08:23:31;99097.03;;;3.52;47.94
36630;BME280;36256;42.154;23.002;2023-02-08T08:25:58;99092.94;;;4.03;46.93
36630;BME280;36256;42.154;23.002;2023-02-08T08:28:25;99098.78;;;3.79;46.90
36630;BME280;36256;42.154;23.002;2023-02-08T08:30:52;99093.00;;;4.29;45.66
36630;BME280;36256;42.154;23.002;2023-02-08T08:33:19;99097.06;;;5.59;43.93
36630;BME280;36256;42.154;23.002;2023-02-08T08:35:46;99092.53;;;6.10;42.67
36630;BME280;36256;42.154;23.002;2023-02-08T08:38:12;99092.13;;;6.89;41.56
36630;BME280;36256;42.154;23.002;2023-02-08T08:40:39;99092.91;;;6.05;42.20
36630;BME280;36256;42.154;23.002;2023-02-08T08:43:06;99085.81;;;5.52;42.68
36630;BME280;36256;42.154;23.002;2023-02-08T08:45:33;99083.47;;;5.54;42.65
36630;BME280;36256;42.154;23.002;2023-02-08T08:48:04;99090.22;;;6.12;41.58
36630;BME280;36256;42.154;23.002;2023-02-08T08:50:31;99079.66;;;5.10;42.68
36630;BME280;36256;42.154;23.002;2023-02-08T08:52:58;99084.59;;;5.79;41.94
36630;BME280;36256;42.154;23.002;2023-02-08T08:55:24;99075.34;;;6.01;41.78
36630;BME280;36256;42.154;23.002;2023-02-08T08:57:53;99083.53;;;6.61;40.27
36630;BME280;36256;42.154;23.002;2023-02-08T09:00:20;99068.94;;;5.38;42.64
36630;BME280;36256;42.154;23.002;2023-02-08T09:02:46;99080.09;;;6.78;40.33
36630;BME280;36256;42.154;23.002;2023-02-08T09:05:13;99082.97;;;7.50;38.89
36630;BME280;36256;42.154;23.002;2023-02-08T09:07:39;99070.22;;;8.70;37.29
36630;BME280;36256;42.154;23.002;2023-02-08T09:10:06;99078.22;;;7.57;37.74
36630;BME280;36256;42.154;23.002;2023-02-08T09:12:33;99074.63;;;6.08;40.09
36630;BME280;36256;42.154;23.002;2023-02-08T09:14:59;99082.94;;;7.43;37.99
36630;BME280;36256;42.154;23.002;2023-02-08T09:17:26;99083.41;;;7.55;37.90
36630;BME280;36256;42.154;23.002;2023-02-08T09:19:52;99075.53;;;7.10;38.53
36630;BME280;36256;42.154;23.002;2023-02-08T09:22:19;99080.41;;;7.99;37.95
36630;BME280;36256;42.154;23.002;2023-02-08T09:24:46;99080.84;;;9.81;34.04
36630;BME280;36256;42.154;23.002;2023-02-08T09:27:12;99072.81;;;9.90;34.00
36630;BME280;36256;42.154;23.002;2023-02-08T09:29:40;99081.31;;;11.47;32.56
36630;BME280;36256;42.154;23.002;2023-02-08T09:32:06;99063.00;;;10.30;33.24
36630;BME280;36256;42.154;23.002;2023-02-08T09:34:35;99065.59;;;9.92;34.28
36630;BME280;36256;42.154;23.002;2023-02-08T09:37:02;99070.00;;;9.83;34.10
36630;BME280;36256;42.154;23.002;2023-02-08T09:39:29;99070.16;;;9.30;35.12
36630;BME280;36256;42.154;23.002;2023-02-08T09:47:34;99044.25;;;6.83;38.32
36630;BME280;36256;42.154;23.002;2023-02-08T09:52:39;99040.34;;;5.41;41.46
36630;BME280;36256;42.154;23.002;2023-02-08T09:57:56;99037.00;;;4.27;43.54
36630;BME280;36256;42.154;23.002;2023-02-08T10:00:34;99036.00;;;3.93;43.81
36630;BME280;36256;42.154;23.002;2023-02-08T10:03:02;99031.44;;;4.27;43.87
36630;BME280;36256;42.154;23.002;2023-02-08T10:05:30;99027.56;;;4.32;44.77
36630;BME280;36256;42.154;23.002;2023-02-08T10:07:57;98990.81;;;4.19;43.14
36630;BME280;36256;42.154;23.002;2023-02-08T10:13:17;99013.41;;;4.40;44.07
36630;BME280;36256;42.154;23.002;2023-02-08T10:24:49;98988.81;;;4.42;43.93
36630;BME280;36256;42.154;23.002;2023-02-08T10:27:24;98985.44;;;4.30;43.07
36630;BME280;36256;42.154;23.002;2023-02-08T10:32:59;98993.25;;;3.79;43.89
36630;BME280;36256;42.154;23.002;2023-02-08T10:35:36;99009.31;;;3.89;44.42
36630;BME280;36256;42.154;23.002;2023-02-08T10:40:52;98993.03;;;4.10;40.86
36630;BME280;36256;42.154;23.002;2023-02-08T10:43:30;98988.66;;;4.32;38.40
36630;BME280;36256;42.154;23.002;2023-02-08T10:46:19;98991.81;;;4.30;39.63
36630;BME280;36256;42.154;23.002;2023-02-08T10:51:39;98984.88;;;4.69;37.86
36630;BME280;36256;42.154;23.002;2023-02-08T10:54:11;98972.47;;;4.63;40.37
36630;BME280;36256;42.154;23.002;2023-02-08T10:59:15;98989.78;;;5.06;37.56
36630;BME280;36256;42.154;23.002;2023-02-08T11:01:44;98993.75;;;5.05;37.20
36630;BME280;36256;42.154;23.002;2023-02-08T11:04:12;98987.84;;;5.10;38.51
36630;BME280;36256;42.154;23.002;2023-02-08T11:06:41;98989.94;;;5.20;38.81
36630;BME280;36256;42.154;23.002;2023-02-08T11:09:29;98983.69;;;5.26;37.34
36630;BME280;36256;42.154;23.002;2023-02-08T11:12:00;98985.16;;;5.17;36.89
36630;BME280;36256;42.154;23.002;2023-02-08T11:14:29;98988.50;;;5.29;37.52
36630;BME280;36256;42.154;23.002;2023-02-08T11:17:32;98997.97;;;5.25;37.52
36630;BME280;36256;42.154;23.002;2023-02-08T11:19:59;98989.03;;;5.38;37.40
36630;BME280;36256;42.154;23.002;2023-02-08T11:22:28;98989.88;;;5.13;36.43
36630;BME280;36256;42.154;23.002;2023-02-08T11:25:03;98997.69;;;5.04;37.90
36630;BME280;36256;42.154;23.002;2023-02-08T11:27:34;98985.34;;;5.31;37.38
36630;BME280;36256;42.154;23.002;2023-02-08T11:32:34;98981.75;;;5.01;37.06
36630;BME280;36256;42.154;23.002;2023-02-08T11:35:22;98988.72;;;4.88;37.77
36630;BME280;36256;42.154;23.002;2023-02-08T11:37:54;98988.94;;;5.02;36.91
36630;BME280;36256;42.154;23.002;2023-02-08T11:40:28;98981.88;;;5.11;39.21
36630;BME280;36256;42.154;23.002;2023-02-08T11:42:57;98985.38;;;5.34;36.69
36630;BME280;36256;42.154;23.002;2023-02-08T11:45:27;98980.81;;;5.52;38.32
36630;BME280;36256;42.154;23.002;2023-02-08T11:47:55;98969.47;;;5.35;36.80
36630;BME280;36256;42.154;23.002;2023-02-08T11:53:00;98989.22;;;5.23;35.79
36630;BME280;36256;42.154;23.002;2023-02-08T11:55:30;98966.19;;;4.66;36.65
36630;BME280;36256;42.154;23.002;2023-02-08T12:00:32;98989.81;;;4.53;37.54
36630;BME280;36256;42.154;23.002;2023-02-08T12:03:13;98989.03;;;4.56;38.04
36630;BME280;36256;42.154;23.002;2023-02-08T12:08:26;98981.44;;;4.79;38.51
36630;BME280;36256;42.154;23.002;2023-02-08T12:11:06;98993.50;;;5.17;37.25
36630;BME280;36256;42.154;23.002;2023-02-08T12:13:41;98990.72;;;5.17;35.73
36630;BME280;36256;42.154;23.002;2023-02-08T12:16:20;98986.84;;;5.25;36.49
36630;BME280;36256;42.154;23.002;2023-02-08T12:30:31;98973.66;;;5.22;37.23
36630;BME280;36256;42.154;23.002;2023-02-08T12:45:06;98961.38;;;5.23;39.36
36630;BME280;36256;42.154;23.002;2023-02-08T12:50:50;98959.63;;;5.11;39.40
36630;BME280;36256;42.154;23.002;2023-02-08T12:55:49;98949.84;;;4.91;39.48
36630;BME280;36256;42.154;23.002;2023-02-08T12:58:29;98967.56;;;5.09;38.45
36630;BME280;36256;42.154;23.002;2023-02-08T13:01:07;98967.50;;;5.06;37.56
36630;BME280;36256;42.154;23.002;2023-02-08T13:03:45;98959.06;;;4.99;36.88
36630;BME280;36256;42.154;23.002;2023-02-08T13:06:42;98979.75;;;5.31;38.39
36630;BME280;36256;42.154;23.002;2023-02-08T13:09:15;98965.41;;;5.25;38.03
36630;BME280;36256;42.154;23.002;2023-02-08T13:11:56;98964.41;;;5.44;36.53
36630;BME280;36256;42.154;23.002;2023-02-08T13:14:34;98962.16;;;5.53;36.43
36630;BME280;36256;42.154;23.002;2023-02-08T13:17:17;98985.91;;;5.80;37.50
36630;BME280;36256;42.154;23.002;2023-02-08T13:20:03;98982.28;;;5.76;35.90
36630;BME280;36256;42.154;23.002;2023-02-08T13:22:38;98983.72;;;5.60;36.63
36630;BME280;36256;42.154;23.002;2023-02-08T13:25:13;98994.72;;;5.49;38.71
36630;BME280;36256;42.154;23.002;2023-02-08T13:27:40;98986.28;;;5.42;38.03
36630;BME280;36256;42.154;23.002;2023-02-08T13:30:18;98994.88;;;5.30;37.02
36630;BME280;36256;42.154;23.002;2023-02-08T13:32:47;98995.22;;;4.99;36.57
36630;BME280;36256;42.154;23.002;2023-02-08T13:35:24;99004.25;;;4.62;38.08
36630;BME280;36256;42.154;23.002;2023-02-08T13:38:31;99004.75;;;4.23;39.12
36630;BME280;36256;42.154;23.002;2023-02-08T13:41:21;99004.28;;;4.17;39.34
36630;BME280;36256;42.154;23.002;2023-02-08T13:43:52;99006.38;;;4.01;40.11
36630;BME280;36256;42.154;23.002;2023-02-08T13:46:20;99004.75;;;4.00;40.52
36630;BME280;36256;42.154;23.002;2023-02-08T13:48:56;99003.50;;;3.75;41.55
36630;BME280;36256;42.154;23.002;2023-02-08T13:59:37;98994.78;;;3.35;42.28
36630;BME280;36256;42.154;23.002;2023-02-08T14:04:45;99008.91;;;3.10;42.81
36630;BME280;36256;42.154;23.002;2023-02-08T14:07:20;98998.13;;;3.05;43.63
36630;BME280;36256;42.154;23.002;2023-02-08T14:10:03;99003.81;;;2.93;43.81
36630;BME280;36256;42.154;23.002;2023-02-08T14:19:04;99003.66;;;2.71;44.76
36630;BME280;36256;42.154;23.002;2023-02-08T14:21:36;99001.81;;;2.94;44.30
36630;BME280;36256;42.154;23.002;2023-02-08T14:24:07;98998.78;;;2.99;43.46
36630;BME280;36256;42.154;23.002;2023-02-08T14:26:35;99003.97;;;3.19;44.01
36630;BME280;36256;42.154;23.002;2023-02-08T14:29:04;99006.38;;;3.21;43.35
36630;BME280;36256;42.154;23.002;2023-02-08T14:31:42;98989.81;;;3.05;43.35
36630;BME280;36256;42.154;23.002;2023-02-08T14:34:36;98999.00;;;3.09;44.05
36630;BME280;36256;42.154;23.002;2023-02-08T14:39:36;99004.34;;;3.37;42.71
36630;BME280;36256;42.154;23.002;2023-02-08T14:42:10;99002.22;;;3.31;42.71
36630;BME280;36256;42.154;23.002;2023-02-08T14:52:34;99007.13;;;2.83;44.04
36630;BME280;36256;42.154;23.002;2023-02-08T14:55:11;99011.03;;;2.63;44.98
36630;BME280;36256;42.154;23.002;2023-02-08T14:57:40;99009.84;;;2.64;43.51
36630;BME280;36256;42.154;23.002;2023-02-08T15:00:19;99009.06;;;2.64;44.09
36630;BME280;36256;42.154;23.002;2023-02-08T15:02:48;99013.91;;;2.51;44.34
36630;BME280;36256;42.154;23.002;2023-02-08T15:05:26;99016.69;;;2.51;45.19
36630;BME280;36256;42.154;23.002;2023-02-08T15:07:55;99010.97;;;2.44;44.39
36630;BME280;36256;42.154;23.002;2023-02-08T15:10:24;99014.56;;;2.29;45.21
36630;BME280;36256;42.154;23.002;2023-02-08T15:12:53;99014.19;;;2.30;44.96
36630;BME280;36256;42.154;23.002;2023-02-08T15:15:30;99016.97;;;2.15;45.22
36630;BME280;36256;42.154;23.002;2023-02-08T15:18:00;99018.41;;;2.09;45.07